createdAt,value
2019-03-18T00:00:35.153Z,2.80
2019-03-18T00:03:04.256Z,2.83
2019-03-18T00:05:32.783Z,3.00
2019-03-18T00:08:01.638Z,2.80
2019-03-18T00:10:30.088Z,2.37
2019-03-18T00:12:58.615Z,2.50
2019-03-18T00:15:27.089Z,2.60
2019-03-18T00:17:55.549Z,2.33
2019-03-18T00:20:24.022Z,2.83
2019-03-18T00:22:52.483Z,2.60
2019-03-18T00:25:20.959Z,2.80
2019-03-18T00:27:49.420Z,3.30
2019-03-18T00:30:21.483Z,3.10
2019-03-18T00:32:49.971Z,3.20
2019-03-18T00:35:18.690Z,3.07
2019-03-18T00:37:47.146Z,3.37
2019-03-18T00:40:17.629Z,3.40
2019-03-18T00:42:46.174Z,3.50
2019-03-18T00:45:15.784Z,3.70
2019-03-18T00:47:44.899Z,4.10
2019-03-18T00:50:15.267Z,3.80
2019-03-18T00:52:44.172Z,3.90
2019-03-18T00:55:13.190Z,4.70
2019-03-18T00:57:41.785Z,4.60
2019-03-18T01:00:15.766Z,4.23
2019-03-18T01:02:44.288Z,4.10
2019-03-18T01:05:13.122Z,4.20
2019-03-18T01:07:41.572Z,4.37
2019-03-18T01:10:12.163Z,4.17
2019-03-18T01:12:40.612Z,4.30
2019-03-18T01:15:10.434Z,4.47
2019-03-18T01:17:38.893Z,4.20
2019-03-18T01:20:09.834Z,4.03
2019-03-18T01:22:38.294Z,4.00
2019-03-18T01:25:08.489Z,4.17
2019-03-18T01:27:36.957Z,4.50
2019-03-18T01:30:08.427Z,4.13
2019-03-18T01:32:36.907Z,4.37
2019-03-18T01:35:07.708Z,4.43
2019-03-18T01:37:36.193Z,4.20
2019-03-18T01:40:07.663Z,4.47
2019-03-18T01:42:36.141Z,4.40
2019-03-18T01:45:06.139Z,4.43
2019-03-18T01:47:34.633Z,4.20
2019-03-18T01:50:03.098Z,4.40
2019-03-18T01:52:31.559Z,4.03
2019-03-18T01:55:00.110Z,3.47
2019-03-18T01:57:28.741Z,3.80
2019-03-18T01:59:57.244Z,3.50
2019-03-18T02:02:25.701Z,3.60
2019-03-18T02:04:54.185Z,4.00
2019-03-18T02:07:22.721Z,3.33
2019-03-18T02:09:51.192Z,2.90
2019-03-18T02:12:19.673Z,3.20
2019-03-18T02:14:48.137Z,2.70
2019-03-18T02:17:16.627Z,2.73
2019-03-18T02:19:45.092Z,2.83
2019-03-18T02:22:13.572Z,2.83
2019-03-18T02:24:42.033Z,2.33
2019-03-18T02:27:10.501Z,2.40
2019-03-18T02:29:38.986Z,2.40
2019-03-18T02:32:07.520Z,2.10
2019-03-18T02:34:35.999Z,2.00
2019-03-18T02:37:04.538Z,2.10
2019-03-18T02:39:33.009Z,2.10
2019-03-18T02:42:01.462Z,2.23
2019-03-18T02:44:29.966Z,2.00
2019-03-18T02:46:58.433Z,1.97
2019-03-18T02:49:26.901Z,1.67
2019-03-18T02:51:55.376Z,2.00
2019-03-18T02:54:23.837Z,1.97
2019-03-18T02:56:52.311Z,1.93
2019-03-18T02:59:20.784Z,2.03
2019-03-18T03:01:49.335Z,1.73
2019-03-18T03:04:17.804Z,2.00
2019-03-18T03:06:46.258Z,2.30
2019-03-18T03:09:14.738Z,2.17
2019-03-18T03:11:43.193Z,2.00
2019-03-18T03:14:11.673Z,2.20
2019-03-18T03:16:40.146Z,2.10
2019-03-18T03:19:08.606Z,2.07
2019-03-18T03:21:37.071Z,2.00
2019-03-18T03:24:05.644Z,1.90
2019-03-18T03:26:34.101Z,2.10
2019-03-18T03:29:02.654Z,1.87
2019-03-18T03:31:31.132Z,1.80
2019-03-18T03:33:59.614Z,1.90
2019-03-18T03:36:28.250Z,2.30
2019-03-18T03:38:56.710Z,2.00
2019-03-18T03:41:25.172Z,1.73
2019-03-18T03:43:53.639Z,1.90
2019-03-18T03:46:22.096Z,1.87
2019-03-18T03:48:50.565Z,1.90
2019-03-18T03:51:19.022Z,1.90
2019-03-18T03:53:47.492Z,1.93
2019-03-18T03:56:15.990Z,1.70
2019-03-18T03:58:44.530Z,1.93
2019-03-18T04:01:13.120Z,1.83
2019-03-18T04:03:41.613Z,1.90
2019-03-18T04:06:10.077Z,1.70
2019-03-18T04:08:38.628Z,1.90
2019-03-18T04:11:08.678Z,1.87
2019-03-18T04:13:37.371Z,1.70
2019-03-18T04:16:05.809Z,2.17
2019-03-18T04:18:34.296Z,1.97
2019-03-18T04:21:02.757Z,1.70
2019-03-18T04:23:31.237Z,1.90
2019-03-18T04:25:59.708Z,1.97
2019-03-18T04:28:28.161Z,2.53
2019-03-18T04:30:56.632Z,1.80
2019-03-18T04:33:25.101Z,1.90
2019-03-18T04:35:53.584Z,1.93
2019-03-18T04:38:22.045Z,1.97
2019-03-18T04:40:50.502Z,1.63
2019-03-18T04:43:18.980Z,1.80
2019-03-18T04:45:47.442Z,1.90
2019-03-18T04:48:15.921Z,2.00
2019-03-18T04:50:44.376Z,1.97
2019-03-18T04:53:12.859Z,1.70
2019-03-18T04:55:41.318Z,1.83
2019-03-18T04:58:09.807Z,2.03
2019-03-18T05:00:38.268Z,1.80
2019-03-18T05:03:06.728Z,2.00
2019-03-18T05:05:35.209Z,2.00
2019-03-18T05:08:03.674Z,2.47
2019-03-18T05:10:32.156Z,1.90
2019-03-18T05:13:00.617Z,2.13
2019-03-18T05:15:29.106Z,2.00
2019-03-18T05:17:57.622Z,2.43
2019-03-18T05:20:26.092Z,2.00
2019-03-18T05:22:54.557Z,1.97
2019-03-18T05:25:23.021Z,2.27
2019-03-18T05:27:51.495Z,2.00
2019-03-18T05:30:19.975Z,2.20
2019-03-18T05:32:48.437Z,1.87
2019-03-18T05:35:16.926Z,3.27
2019-03-18T05:37:45.387Z,1.83
2019-03-18T05:40:14.193Z,2.13
2019-03-18T05:42:42.734Z,2.10
2019-03-18T05:45:12.139Z,1.90
2019-03-18T05:47:40.632Z,2.00
2019-03-18T05:50:10.733Z,2.10
2019-03-18T05:52:39.211Z,1.80
2019-03-18T05:55:09.422Z,2.10
2019-03-18T05:57:37.912Z,1.97
2019-03-18T06:00:09.310Z,2.00
2019-03-18T06:02:37.783Z,2.13
2019-03-18T06:05:07.089Z,1.77
2019-03-18T06:07:35.595Z,1.80
2019-03-18T06:10:07.110Z,2.20
2019-03-18T06:12:35.638Z,2.20
2019-03-18T06:15:05.968Z,2.00
2019-03-18T06:17:34.440Z,1.90
2019-03-18T06:20:03.189Z,2.07
2019-03-18T06:22:31.674Z,1.90
2019-03-18T06:25:00.402Z,2.13
2019-03-18T06:27:28.996Z,2.00
2019-03-18T06:29:57.450Z,2.20
2019-03-18T06:32:25.918Z,2.13
2019-03-18T06:34:54.396Z,2.00
2019-03-18T06:37:22.990Z,2.00
2019-03-18T06:39:51.487Z,2.07
2019-03-18T06:42:20.019Z,6.17
2019-03-18T06:44:48.506Z,2.00
2019-03-18T06:47:16.969Z,2.00
2019-03-18T06:49:45.447Z,1.90
2019-03-18T06:52:13.926Z,2.10
2019-03-18T06:54:42.492Z,2.00
2019-03-18T06:57:11.034Z,1.77
2019-03-18T06:59:39.675Z,1.60
2019-03-18T07:02:08.228Z,2.03
2019-03-18T07:04:36.690Z,2.00
2019-03-18T07:07:05.234Z,1.60
2019-03-18T07:09:33.701Z,1.80
2019-03-18T07:12:02.359Z,2.00
2019-03-18T07:14:30.841Z,2.30
2019-03-18T07:16:59.314Z,1.80
2019-03-18T07:19:27.796Z,1.70
2019-03-18T07:21:56.275Z,1.53
2019-03-18T07:24:24.813Z,1.90
2019-03-18T07:26:53.271Z,1.73
2019-03-18T07:29:22.015Z,1.80
2019-03-18T07:31:50.527Z,1.97
2019-03-18T07:34:19.030Z,1.90
2019-03-18T07:36:47.594Z,2.00
2019-03-18T07:39:16.619Z,1.80
2019-03-18T07:41:45.632Z,1.90
2019-03-18T07:44:14.681Z,1.60
2019-03-18T07:46:43.154Z,1.60
2019-03-18T07:49:12.192Z,2.00
2019-03-18T07:51:40.685Z,1.82
2019-03-18T07:54:09.734Z,1.80
2019-03-18T07:56:38.774Z,1.67
2019-03-18T07:59:07.840Z,1.80
2019-03-18T08:01:36.926Z,1.85
2019-03-18T08:04:05.971Z,2.27
2019-03-18T08:06:34.997Z,1.90
2019-03-18T08:09:04.257Z,1.95
2019-03-18T08:11:33.837Z,1.80
2019-03-18T08:14:02.931Z,1.90
2019-03-18T08:16:31.395Z,1.82
2019-03-18T08:18:59.874Z,2.10
2019-03-18T08:21:28.320Z,1.97
2019-03-18T08:23:57.372Z,1.95
2019-03-18T08:26:27.318Z,1.98
2019-03-18T08:28:56.510Z,2.17
2019-03-18T08:31:25.536Z,2.05
2019-03-18T08:33:54.563Z,2.00
2019-03-18T08:36:23.026Z,2.03
2019-03-18T08:38:52.083Z,2.00
2019-03-18T08:41:21.121Z,2.30
2019-03-18T08:43:50.239Z,2.17
2019-03-18T08:46:19.257Z,2.72
2019-03-18T08:48:55.691Z,2.30
2019-03-18T08:51:19.036Z,2.10
2019-03-18T08:53:48.176Z,2.22
2019-03-18T08:56:17.292Z,2.37
2019-03-18T08:58:46.319Z,2.40
2019-03-18T09:01:15.357Z,2.40
2019-03-18T09:03:44.394Z,2.40
2019-03-18T09:06:13.457Z,2.75
2019-03-18T09:08:42.479Z,2.67
2019-03-18T09:11:11.521Z,2.60
2019-03-18T09:13:40.549Z,2.20
2019-03-18T09:16:09.595Z,2.40
2019-03-18T09:18:38.618Z,2.30
2019-03-18T09:21:07.695Z,2.65
2019-03-18T09:23:36.781Z,2.20
2019-03-18T09:26:05.332Z,2.40
2019-03-18T09:28:34.367Z,2.55
2019-03-18T09:31:02.867Z,2.50
2019-03-18T09:33:31.907Z,2.45
2019-03-18T09:36:00.955Z,2.70
2019-03-18T09:38:29.973Z,2.30
2019-03-18T09:40:59.033Z,2.10
2019-03-18T09:43:28.059Z,2.70
2019-03-18T09:45:57.108Z,2.37
2019-03-18T09:48:26.291Z,2.30
2019-03-18T09:50:55.344Z,2.33
2019-03-18T09:53:24.389Z,2.37
2019-03-18T09:55:53.439Z,2.10
2019-03-18T09:58:22.481Z,2.50
2019-03-18T10:00:51.511Z,2.05
2019-03-18T10:03:20.542Z,2.10
2019-03-18T10:05:49.580Z,1.55
2019-03-18T10:08:18.608Z,1.60
2019-03-18T10:10:47.639Z,1.60
2019-03-18T10:13:16.660Z,1.80
2019-03-18T10:15:45.716Z,1.60
2019-03-18T10:18:14.747Z,2.00
2019-03-18T10:20:43.864Z,1.85
2019-03-18T10:23:12.908Z,1.75
2019-03-18T10:25:41.936Z,2.00
2019-03-18T10:28:10.956Z,1.67
2019-03-18T10:30:40.000Z,2.50
2019-03-18T10:33:09.072Z,2.35
2019-03-18T10:35:38.166Z,1.70
2019-03-18T10:38:07.252Z,1.90
2019-03-18T10:40:36.314Z,1.77
2019-03-18T10:43:05.332Z,1.70
2019-03-18T10:45:34.468Z,1.85
2019-03-18T10:48:03.529Z,1.35
2019-03-18T10:50:32.593Z,1.60
2019-03-18T10:53:01.618Z,1.30
2019-03-18T10:55:30.671Z,1.40
2019-03-18T10:57:59.695Z,1.55
2019-03-18T11:00:28.734Z,1.27
2019-03-18T11:02:57.769Z,1.75
2019-03-18T11:05:26.809Z,1.80
2019-03-18T11:07:55.921Z,1.10
2019-03-18T11:10:24.973Z,1.40
2019-03-18T11:12:54.032Z,1.20
2019-03-18T11:15:23.607Z,1.37
2019-03-18T11:17:52.651Z,1.20
2019-03-18T11:20:21.695Z,1.50
2019-03-18T11:22:50.737Z,1.42
2019-03-18T11:25:19.773Z,1.52
2019-03-18T11:27:48.830Z,1.52
2019-03-18T11:30:18.984Z,1.25
2019-03-18T11:32:48.074Z,1.20
2019-03-18T11:35:17.244Z,1.30
2019-03-18T11:37:46.346Z,1.30
2019-03-18T11:40:20.753Z,0.98
2019-03-18T11:42:49.771Z,1.20
2019-03-18T11:45:19.154Z,1.50
2019-03-18T11:47:48.184Z,1.77
2019-03-18T11:50:20.885Z,1.50
2019-03-18T11:52:49.921Z,1.75
2019-03-18T11:55:24.611Z,1.50
2019-03-18T11:57:53.686Z,1.50
2019-03-18T12:00:23.670Z,1.98
2019-03-18T12:02:52.703Z,2.02
2019-03-18T12:05:28.511Z,1.80
2019-03-18T12:07:57.701Z,2.20
2019-03-18T12:10:26.838Z,2.05
2019-03-18T12:12:55.872Z,1.67
2019-03-18T12:15:26.140Z,2.10
2019-03-18T12:17:55.200Z,1.42
2019-03-18T12:20:25.614Z,1.32
2019-03-18T12:22:55.085Z,1.50
2019-03-18T12:25:24.132Z,1.30
2019-03-18T12:27:53.242Z,1.10
2019-03-18T12:30:23.761Z,1.30
2019-03-18T12:32:52.786Z,1.20
2019-03-18T12:35:21.838Z,1.60
2019-03-18T12:37:51.106Z,1.32
2019-03-18T12:40:20.270Z,1.45
2019-03-18T12:42:49.313Z,1.40
2019-03-18T12:45:22.003Z,1.20
2019-03-18T12:47:51.030Z,1.98
2019-03-18T12:50:55.169Z,1.57
2019-03-18T12:52:54.893Z,1.30
2019-03-18T12:55:23.983Z,1.40
2019-03-18T12:57:53.002Z,1.50
2019-03-18T13:00:26.872Z,1.02
2019-03-18T13:02:55.971Z,1.32
2019-03-18T13:05:25.012Z,1.77
2019-03-18T13:07:54.031Z,1.22
2019-03-18T13:10:23.211Z,1.50
2019-03-18T13:12:52.463Z,1.35
2019-03-18T13:15:21.703Z,1.25
2019-03-18T13:17:50.740Z,1.27
2019-03-18T13:20:21.043Z,1.50
2019-03-18T13:22:52.355Z,1.50
2019-03-18T13:25:20.908Z,1.37
2019-03-18T13:27:50.008Z,1.10
2019-03-18T13:30:20.186Z,1.32
2019-03-18T13:32:49.228Z,1.27
2019-03-18T13:35:18.422Z,1.30
2019-03-18T13:37:47.459Z,1.20
2019-03-18T13:40:17.470Z,1.12
2019-03-18T13:42:46.744Z,1.00
2019-03-18T13:45:18.870Z,1.10
2019-03-18T13:47:48.096Z,1.32
2019-03-18T13:50:18.543Z,1.12
2019-03-18T13:52:47.584Z,1.45
2019-03-18T13:55:16.770Z,1.60
2019-03-18T13:57:46.200Z,1.10
2019-03-18T14:00:22.765Z,1.20
2019-03-18T14:02:51.871Z,1.30
2019-03-18T14:05:21.062Z,1.30
2019-03-18T14:07:59.630Z,1.50
2019-03-18T14:10:22.012Z,1.40
2019-03-18T14:12:51.186Z,1.67
2019-03-18T14:15:21.479Z,1.87
2019-03-18T14:17:50.950Z,1.07
2019-03-18T14:20:24.820Z,1.95
2019-03-18T14:22:54.046Z,1.30
2019-03-18T14:25:23.151Z,1.30
2019-03-18T14:27:52.213Z,1.70
2019-03-18T14:30:22.183Z,1.90
2019-03-18T14:32:51.233Z,1.98
2019-03-18T14:35:21.539Z,2.15
2019-03-18T14:37:51.095Z,2.62
2019-03-18T14:40:22.325Z,2.00
2019-03-18T14:42:51.374Z,1.90
2019-03-18T14:45:24.039Z,2.22
2019-03-18T14:47:53.085Z,1.70
2019-03-18T14:50:22.123Z,1.55
2019-03-18T14:52:51.188Z,1.00
2019-03-18T14:55:20.235Z,1.25
2019-03-18T14:57:49.385Z,1.10
2019-03-18T15:00:28.539Z,1.07
2019-03-18T15:02:57.570Z,0.62
2019-03-18T15:05:26.607Z,1.30
2019-03-18T15:07:55.649Z,0.70
2019-03-18T15:10:29.888Z,0.80
2019-03-18T15:12:58.933Z,1.40
2019-03-18T15:15:28.041Z,1.10
2019-03-18T15:17:57.087Z,1.00
2019-03-18T15:20:29.645Z,1.37
2019-03-18T15:22:58.695Z,1.55
2019-03-18T15:25:29.271Z,1.65
2019-03-18T15:27:58.320Z,1.70
2019-03-18T15:30:27.457Z,1.50
2019-03-18T15:32:56.570Z,3.80
2019-03-18T15:35:25.689Z,1.75
2019-03-18T15:37:54.793Z,1.77
2019-03-18T15:40:28.482Z,1.95
2019-03-18T15:42:57.588Z,1.72
2019-03-18T15:45:26.624Z,1.62
2019-03-18T15:47:55.739Z,1.40
2019-03-18T15:50:25.903Z,1.85
2019-03-18T15:52:54.993Z,1.60
2019-03-18T15:55:24.702Z,1.95
2019-03-18T15:57:54.130Z,1.85
2019-03-18T16:00:27.918Z,1.77
2019-03-18T16:02:57.045Z,2.02
2019-03-18T16:05:26.086Z,2.05
2019-03-18T16:07:55.148Z,1.60
2019-03-18T16:10:24.256Z,1.95
2019-03-18T16:12:53.380Z,1.70
2019-03-18T16:15:22.490Z,2.35
2019-03-18T16:17:51.530Z,2.80
2019-03-18T16:20:27.196Z,2.70
2019-03-18T16:22:56.222Z,3.12
2019-03-18T16:25:25.367Z,3.67
2019-03-18T16:27:54.409Z,8.55
2019-03-18T16:30:23.535Z,1.40
2019-03-18T16:32:52.566Z,1.40
2019-03-18T16:35:21.679Z,1.62
2019-03-18T16:37:50.990Z,1.30
2019-03-18T16:40:23.946Z,1.32
2019-03-18T16:42:53.002Z,1.30
2019-03-18T16:45:22.143Z,1.32
2019-03-18T16:47:51.221Z,1.20
2019-03-18T16:50:21.911Z,0.98
2019-03-18T16:52:50.949Z,1.45
2019-03-18T16:55:20.231Z,1.30
2019-03-18T16:57:49.315Z,1.22
2019-03-18T17:00:21.043Z,1.05
2019-03-18T17:02:50.073Z,1.45
2019-03-18T17:05:19.202Z,1.22
2019-03-18T17:07:48.309Z,1.25
2019-03-18T17:10:17.535Z,1.35
2019-03-18T17:12:46.640Z,1.62
2019-03-18T17:15:17.087Z,1.40
2019-03-18T17:17:46.137Z,1.22
2019-03-18T17:20:15.996Z,1.25
2019-03-18T17:22:49.200Z,1.62
2019-03-18T17:25:30.406Z,1.67
2019-03-18T17:27:59.455Z,1.27
2019-03-18T17:30:28.482Z,1.40
2019-03-18T17:32:57.540Z,1.32
2019-03-18T17:35:26.628Z,1.75
2019-03-18T17:37:55.701Z,2.52
2019-03-18T17:40:24.741Z,1.10
2019-03-18T17:42:53.783Z,1.15
2019-03-18T17:45:22.810Z,2.60
2019-03-18T17:47:53.700Z,7.55
2019-03-18T17:50:28.025Z,2.05
2019-03-18T17:53:02.964Z,1.20
2019-03-18T17:55:27.311Z,1.60
2019-03-18T17:57:56.417Z,1.65
2019-03-18T18:00:32.386Z,2.05
2019-03-18T18:03:00.849Z,7.35
2019-03-18T18:05:29.942Z,2.20
2019-03-18T18:07:59.000Z,2.90
2019-03-18T18:10:28.032Z,1.57
2019-03-18T18:12:57.064Z,1.52
2019-03-18T18:15:25.520Z,2.30
2019-03-18T18:17:54.564Z,2.75
2019-03-18T18:20:23.025Z,1.90
2019-03-18T18:22:52.066Z,1.20
2019-03-18T18:25:21.156Z,1.75
2019-03-18T18:27:49.640Z,1.72
2019-03-18T18:30:19.510Z,1.40
2019-03-18T18:32:48.117Z,1.40
2019-03-18T18:35:17.131Z,1.42
2019-03-18T18:37:46.182Z,1.25
2019-03-18T18:40:25.458Z,1.37
2019-03-18T18:42:54.118Z,1.30
2019-03-18T18:45:22.570Z,1.10
2019-03-18T18:47:51.026Z,1.60
2019-03-18T18:50:19.649Z,2.40
2019-03-18T18:52:48.168Z,2.03
2019-03-18T18:55:16.750Z,1.10
2019-03-18T18:57:45.769Z,2.08
2019-03-18T19:00:21.138Z,1.60
2019-03-18T19:02:50.154Z,1.50
2019-03-18T19:05:19.076Z,3.30
2019-03-18T19:07:47.596Z,1.80
2019-03-18T19:10:20.974Z,3.83
2019-03-18T19:12:49.570Z,2.23
2019-03-18T19:15:28.856Z,2.13
2019-03-18T19:17:57.321Z,1.90
2019-03-18T19:20:25.793Z,1.80
2019-03-18T19:22:54.241Z,1.80
2019-03-18T19:25:22.719Z,1.50
2019-03-18T19:27:51.269Z,1.27
2019-03-18T19:30:20.788Z,1.57
2019-03-18T19:32:49.301Z,1.30
2019-03-18T19:35:17.849Z,1.17
2019-03-18T19:37:46.401Z,1.40
2019-03-18T19:40:16.333Z,1.47
2019-03-18T19:42:44.791Z,1.20
2019-03-18T19:45:14.418Z,1.60
2019-03-18T19:47:43.185Z,1.47
2019-03-18T19:50:19.862Z,1.57
2019-03-18T19:52:48.417Z,1.53
2019-03-18T19:55:16.889Z,1.43
2019-03-18T19:57:45.368Z,1.23
2019-03-18T20:00:22.172Z,0.93
2019-03-18T20:02:50.707Z,1.13
2019-03-18T20:05:19.335Z,1.17
2019-03-18T20:07:47.913Z,1.10
2019-03-18T20:10:17.537Z,1.23
2019-03-18T20:12:46.099Z,1.40
2019-03-18T20:15:16.693Z,1.20
2019-03-18T20:17:45.386Z,1.20
2019-03-18T20:20:15.314Z,1.40
2019-03-18T20:22:43.859Z,1.40
2019-03-18T20:25:13.475Z,1.53
2019-03-18T20:27:42.277Z,1.60
2019-03-18T20:30:16.164Z,1.70
2019-03-18T20:32:44.700Z,1.60
2019-03-18T20:35:14.904Z,1.40
2019-03-18T20:37:43.391Z,1.37
2019-03-18T20:40:13.816Z,1.47
2019-03-18T20:42:42.541Z,1.30
2019-03-18T20:45:21.582Z,1.50
2019-03-18T20:47:50.067Z,1.37
2019-03-18T20:50:19.970Z,1.17
2019-03-18T20:52:48.453Z,1.70
2019-03-18T20:55:17.341Z,1.87
2019-03-18T20:57:45.803Z,1.50
2019-03-18T21:00:22.077Z,1.67
2019-03-18T21:02:50.566Z,1.40
2019-03-18T21:05:19.016Z,1.33
2019-03-18T21:07:47.732Z,1.43
2019-03-18T21:10:22.863Z,1.73
2019-03-18T21:12:51.332Z,1.63
2019-03-18T21:15:19.954Z,1.37
2019-03-18T21:17:48.490Z,1.60
2019-03-18T21:20:25.809Z,1.60
2019-03-18T21:22:54.296Z,1.43
2019-03-18T21:25:22.761Z,1.40
2019-03-18T21:27:51.231Z,1.70
2019-03-18T21:30:23.261Z,1.40
2019-03-18T21:32:51.940Z,1.83
2019-03-18T21:35:20.460Z,1.60
2019-03-18T21:37:48.991Z,1.63
2019-03-18T21:40:19.491Z,1.47
2019-03-18T21:42:48.020Z,1.63
2019-03-18T21:45:20.265Z,1.70
2019-03-18T21:47:48.883Z,1.60
2019-03-18T21:50:18.075Z,1.43
2019-03-18T21:52:46.810Z,1.60
2019-03-18T21:55:16.717Z,1.87
2019-03-18T21:57:45.351Z,1.77
2019-03-18T22:00:18.772Z,1.33
2019-03-18T22:02:47.379Z,1.60
2019-03-18T22:05:15.903Z,1.37
2019-03-18T22:07:44.572Z,1.47
2019-03-18T22:10:20.626Z,1.67
2019-03-18T22:12:49.236Z,1.50
2019-03-18T22:15:17.775Z,1.30
2019-03-18T22:17:46.422Z,1.47
2019-03-18T22:20:18.534Z,1.40
2019-03-18T22:22:47.018Z,1.97
2019-03-18T22:25:15.923Z,1.47
2019-03-18T22:27:44.526Z,1.60
2019-03-18T22:30:16.072Z,1.30
2019-03-18T22:32:44.886Z,1.27
2019-03-18T22:35:13.711Z,1.50
2019-03-18T22:37:42.447Z,1.40
2019-03-18T22:40:17.658Z,1.03
2019-03-18T22:42:46.116Z,1.60
2019-03-18T22:45:15.862Z,1.57
2019-03-18T22:47:44.548Z,2.17
2019-03-18T22:50:17.672Z,3.70
2019-03-18T22:52:46.141Z,3.00
2019-03-18T22:55:15.260Z,2.47
2019-03-18T22:57:43.862Z,1.70
2019-03-18T23:00:21.506Z,3.63
2019-03-18T23:02:50.376Z,1.77
2019-03-18T23:05:19.091Z,1.40
2019-03-18T23:07:47.541Z,1.57
2019-03-18T23:10:16.024Z,1.30
2019-03-18T23:12:44.488Z,1.60
2019-03-18T23:15:13.148Z,1.43
2019-03-18T23:17:41.671Z,1.47
2019-03-18T23:20:10.307Z,1.33
2019-03-18T23:22:38.785Z,1.60
2019-03-18T23:25:08.337Z,1.30
2019-03-18T23:27:37.041Z,1.50
2019-03-18T23:30:07.981Z,1.70
2019-03-18T23:32:36.901Z,1.37
2019-03-18T23:35:06.772Z,1.60
2019-03-18T23:37:35.289Z,1.53
2019-03-18T23:40:06.007Z,1.90
2019-03-18T23:42:34.529Z,1.50
2019-03-18T23:45:03.008Z,1.90
2019-03-18T23:47:31.464Z,1.57
2019-03-18T23:49:59.936Z,1.77
2019-03-18T23:52:28.383Z,1.30
2019-03-18T23:54:56.867Z,1.50
2019-03-18T23:57:25.339Z,1.60
2019-03-18T23:59:53.801Z,1.60
